臺北終端管制區 - 桃園北區雷達席

METAR RCTP 310930Z 27006KT 220V310 9999 FEW015 BKN019 29/26 Q1010 NOSIG RMK A2983=

站台狀態:Offline
最後更新:2020-05-31 18:00:02